Terminal Aerodrome Forecast
Issued by NWS Charleston, WV

Current Version | Previous Version | Graphics & Text | Print | Product List | Glossary On
Versions: 1 2 3 4 5 6 7 8 9 10 11 12 13 14 15 16 17 18 19 20 21 22 23 24 25 26 27
396
FTUS41 KRLX 202341
TAFEKN
TAF
KEKN 202341Z 2100/2124 30005KT P6SM SCT045
     FM210400 00000KT 2SM BR SCT080
     FM210600 00000KT 1/4SM FG BKN001
     FM211300 00000KT 3SM BR SCT001 BKN060
     FM211400 00000KT P6SM BKN045=

USA.gov is the U.S. government's official web portal to all federal, state and local government web resources and services.